createdAt,value
2018-09-02T00:01:23.418Z,19.75
2018-09-02T00:03:54.509Z,19.71
2018-09-02T00:06:25.957Z,19.68
2018-09-02T00:08:57.297Z,19.66
2018-09-02T00:11:28.773Z,19.58
2018-09-02T00:13:59.941Z,19.58
2018-09-02T00:16:31.426Z,19.57
2018-09-02T00:19:02.560Z,19.59
2018-09-02T00:21:34.955Z,19.49
2018-09-02T00:24:06.760Z,19.35
2018-09-02T00:26:38.720Z,19.08
2018-09-02T00:29:09.829Z,19.05
2018-09-02T00:31:41.627Z,18.93
2018-09-02T00:34:12.861Z,19.05
2018-09-02T00:36:44.481Z,19.18
2018-09-02T00:39:15.032Z,19.19
2018-09-02T00:41:45.851Z,19.27
2018-09-02T00:44:17.282Z,19.28
2018-09-02T00:46:49.229Z,19.36
2018-09-02T00:49:20.676Z,19.35
2018-09-02T00:51:51.643Z,19.40
2018-09-02T00:54:23.208Z,19.47
2018-09-02T00:56:54.984Z,19.47
2018-09-02T00:59:26.234Z,19.39
2018-09-02T01:01:57.540Z,19.51
2018-09-02T01:04:29.093Z,19.43
2018-09-02T01:07:00.110Z,19.40
2018-09-02T01:09:31.411Z,19.27
2018-09-02T01:12:02.986Z,19.27
2018-09-02T01:14:33.951Z,19.25
2018-09-02T01:17:05.558Z,19.25
2018-09-02T01:19:36.943Z,19.32
2018-09-02T01:22:08.221Z,19.32
2018-09-02T01:24:39.405Z,19.05
2018-09-02T01:27:09.853Z,19.04
2018-09-02T01:29:41.694Z,19.16
2018-09-02T01:32:12.503Z,18.95
2018-09-02T01:34:43.701Z,18.89
2018-09-02T01:37:15.124Z,18.91
2018-09-02T01:39:46.616Z,18.89
2018-09-02T01:42:17.083Z,19.01
2018-09-02T01:44:48.416Z,18.76
2018-09-02T01:47:19.174Z,18.32
2018-09-02T01:49:50.672Z,18.14
2018-09-02T01:52:22.129Z,17.79
2018-09-02T01:54:53.184Z,18.08
2018-09-02T01:57:24.725Z,18.22
2018-09-02T01:59:55.796Z,18.30
2018-09-02T02:02:26.779Z,18.44
2018-09-02T02:04:58.269Z,18.60
2018-09-02T02:07:29.633Z,18.68
2018-09-02T02:10:01.065Z,18.74
2018-09-02T02:12:32.638Z,18.68
2018-09-02T02:15:03.953Z,18.52
2018-09-02T02:17:35.281Z,18.36
2018-09-02T02:20:06.159Z,18.45
2018-09-02T02:22:37.606Z,18.54
2018-09-02T02:25:08.627Z,18.59
2018-09-02T02:27:40.098Z,18.51
2018-09-02T02:30:11.567Z,18.48
2018-09-02T02:32:43.061Z,18.68
2018-09-02T02:35:13.647Z,18.68
2018-09-02T02:37:44.899Z,18.65
2018-09-02T02:40:16.065Z,18.59
2018-09-02T02:42:47.536Z,18.55
2018-09-02T02:45:18.837Z,18.49
2018-09-02T02:47:49.945Z,18.37
2018-09-02T02:50:21.279Z,18.27
2018-09-02T02:52:58.178Z,18.31
2018-09-02T02:55:29.677Z,18.31
2018-09-02T02:58:00.858Z,18.38
2018-09-02T03:00:32.578Z,18.32
2018-09-02T03:03:03.935Z,18.28
2018-09-02T03:05:35.554Z,18.19
2018-09-02T03:08:06.815Z,18.24
2018-09-02T03:10:38.110Z,18.26
2018-09-02T03:13:09.601Z,18.32
2018-09-02T03:15:40.468Z,18.17
2018-09-02T03:18:11.790Z,18.18
2018-09-02T03:20:43.080Z,17.90
2018-09-02T03:23:13.493Z,17.83
2018-09-02T03:25:44.479Z,17.61
2018-09-02T03:28:15.322Z,17.77
2018-09-02T03:30:47.362Z,17.97
2018-09-02T03:33:17.944Z,18.00
2018-09-02T03:35:49.493Z,17.76
2018-09-02T03:38:20.757Z,17.61
2018-09-02T03:40:52.051Z,17.64
2018-09-02T03:43:24.095Z,17.69
2018-09-02T03:45:55.553Z,17.41
2018-09-02T03:48:26.572Z,17.34
2018-09-02T03:50:58.441Z,17.39
2018-09-02T03:53:29.549Z,17.51
2018-09-02T03:56:00.034Z,17.64
2018-09-02T03:58:31.013Z,17.64
2018-09-02T04:01:01.965Z,17.62
2018-09-02T04:03:33.580Z,17.60
2018-09-02T04:06:04.732Z,17.57
2018-09-02T04:08:36.992Z,17.64
2018-09-02T04:11:09.106Z,17.80
2018-09-02T04:13:40.736Z,17.68
2018-09-02T04:16:11.800Z,17.70
2018-09-02T04:18:43.220Z,17.81
2018-09-02T04:21:14.283Z,17.75
2018-09-02T04:23:45.938Z,17.92
2018-09-02T04:26:16.341Z,17.97
2018-09-02T04:28:48.062Z,17.94
2018-09-02T04:31:19.464Z,17.97
2018-09-02T04:33:50.869Z,18.11
2018-09-02T04:36:22.393Z,18.26
2018-09-02T04:38:53.328Z,18.26
2018-09-02T04:41:25.355Z,18.33
2018-09-02T04:43:56.688Z,18.46
2018-09-02T04:46:28.376Z,18.57
2018-09-02T04:48:59.732Z,18.63
2018-09-02T04:51:31.264Z,18.76
2018-09-02T04:54:02.553Z,18.76
2018-09-02T04:56:34.618Z,18.90
2018-09-02T04:59:06.439Z,19.07
2018-09-02T05:01:38.830Z,19.17
2018-09-02T05:04:09.994Z,19.32
2018-09-02T05:06:42.673Z,19.53
2018-09-02T05:09:12.999Z,19.70
2018-09-02T05:11:43.330Z,19.77
2018-09-02T05:14:13.696Z,20.01
2018-09-02T05:16:43.797Z,20.38
2018-09-02T05:19:14.298Z,20.61
2018-09-02T05:21:44.557Z,20.71
2018-09-02T05:24:14.840Z,20.82
2018-09-02T05:26:45.263Z,21.08
2018-09-02T05:29:15.281Z,21.31
2018-09-02T05:31:45.611Z,21.61
2018-09-02T05:34:16.407Z,21.93
2018-09-02T05:36:47.611Z,22.22
2018-09-02T05:39:18.853Z,22.51
2018-09-02T05:41:50.115Z,22.67
2018-09-02T05:44:22.169Z,22.81
2018-09-02T05:46:52.186Z,22.85
2018-09-02T05:49:22.235Z,22.82
2018-09-02T05:51:52.773Z,22.77
2018-09-02T05:54:22.975Z,22.89
2018-09-02T05:56:54.312Z,23.00
2018-09-02T05:59:24.566Z,22.82
2018-09-02T06:01:54.593Z,22.78
2018-09-02T06:04:25.761Z,23.03
2018-09-02T06:06:57.326Z,23.30
2018-09-02T06:09:28.646Z,23.35
2018-09-02T06:11:59.493Z,23.56
2018-09-02T06:14:31.990Z,23.73
2018-09-02T06:17:03.329Z,23.78
2018-09-02T06:19:33.787Z,23.96
2018-09-02T06:22:04.870Z,24.19
2018-09-02T06:24:35.873Z,24.38
2018-09-02T06:27:07.369Z,24.72
2018-09-02T06:29:38.513Z,25.12
2018-09-02T06:32:10.187Z,25.13
2018-09-02T06:34:42.970Z,25.21
2018-09-02T06:37:15.483Z,25.14
2018-09-02T06:39:47.076Z,25.29
2018-09-02T06:42:17.650Z,25.36
2018-09-02T06:44:49.019Z,25.52
2018-09-02T06:47:20.729Z,25.69
2018-09-02T06:49:51.454Z,25.59
2018-09-02T06:52:22.658Z,25.76
2018-09-02T06:54:53.265Z,25.86
2018-09-02T06:57:24.025Z,26.06
2018-09-02T06:59:55.364Z,26.27
2018-09-02T07:02:27.083Z,26.30
2018-09-02T07:04:58.331Z,26.50
2018-09-02T07:07:29.619Z,26.75
2018-09-02T07:10:01.010Z,26.86
2018-09-02T07:12:32.268Z,27.12
2018-09-02T07:15:02.555Z,27.26
2018-09-02T07:17:33.917Z,27.64
2018-09-02T07:20:04.670Z,27.69
2018-09-02T07:22:36.167Z,28.06
2018-09-02T07:25:07.707Z,28.29
2018-09-02T07:27:38.683Z,28.46
2018-09-02T07:30:09.043Z,28.59
2018-09-02T07:32:40.330Z,28.77
2018-09-02T07:35:11.666Z,28.94
2018-09-02T07:37:42.829Z,29.06
2018-09-02T07:40:14.412Z,28.92
2018-09-02T07:42:45.624Z,29.11
2018-09-02T07:45:17.650Z,29.34
2018-09-02T07:47:48.950Z,29.60
2018-09-02T07:50:20.536Z,29.71
2018-09-02T07:52:51.965Z,29.70
2018-09-02T07:55:23.099Z,30.00
2018-09-02T07:57:54.644Z,30.09
2018-09-02T08:00:25.372Z,30.01
2018-09-02T08:02:56.938Z,30.33
2018-09-02T08:05:28.127Z,30.54
2018-09-02T08:07:59.367Z,30.75
2018-09-02T08:10:30.642Z,31.08
2018-09-02T08:13:02.442Z,31.32
2018-09-02T08:15:34.384Z,31.49
2018-09-02T08:18:06.092Z,31.49
2018-09-02T08:20:37.869Z,31.95
2018-09-02T08:23:09.335Z,31.74
2018-09-02T08:25:40.726Z,31.69
2018-09-02T08:28:12.761Z,32.21
2018-09-02T08:30:44.444Z,32.55
2018-09-02T08:33:15.271Z,32.58
2018-09-02T08:35:46.720Z,32.82
2018-09-02T08:38:17.936Z,32.71
2018-09-02T08:40:49.471Z,33.04
2018-09-02T08:43:21.108Z,33.55
2018-09-02T08:45:52.739Z,33.85
2018-09-02T08:48:24.007Z,33.90
2018-09-02T08:50:59.714Z,34.11
2018-09-02T08:53:31.403Z,34.57
2018-09-02T08:56:02.681Z,34.55
2018-09-02T08:58:34.509Z,34.57
2018-09-02T09:01:06.019Z,34.67
2018-09-02T09:03:37.228Z,35.19
2018-09-02T09:06:08.952Z,35.32
2018-09-02T09:08:39.995Z,34.84
2018-09-02T09:11:11.257Z,34.51
2018-09-02T09:13:42.758Z,34.12
2018-09-02T09:16:14.494Z,34.42
2018-09-02T09:18:46.005Z,35.05
2018-09-02T09:21:17.309Z,35.24
2018-09-02T09:23:48.882Z,34.89
2018-09-02T09:26:20.558Z,34.69
2018-09-02T09:28:52.552Z,34.76
2018-09-02T09:31:24.049Z,35.30
2018-09-02T09:33:55.823Z,34.90
2018-09-02T09:36:27.809Z,34.82
2018-09-02T09:38:59.484Z,35.23
2018-09-02T09:41:31.719Z,35.75
2018-09-02T09:44:02.613Z,35.37
2018-09-02T09:46:34.441Z,35.84
2018-09-02T09:49:06.416Z,35.62
2018-09-02T09:51:37.727Z,35.35
2018-09-02T09:54:10.220Z,35.43
2018-09-02T09:56:42.261Z,35.32
2018-09-02T09:59:13.093Z,35.57
2018-09-02T10:01:44.649Z,35.96
2018-09-02T10:04:16.271Z,36.38
2018-09-02T10:06:47.908Z,36.36
2018-09-02T10:09:18.499Z,36.00
2018-09-02T10:11:50.337Z,36.08
2018-09-02T10:14:21.883Z,36.19
2018-09-02T10:16:53.741Z,36.08
2018-09-02T10:19:25.377Z,35.87
2018-09-02T10:21:57.586Z,35.96
2018-09-02T10:24:30.136Z,36.33
2018-09-02T10:27:01.697Z,36.98
2018-09-02T10:29:33.231Z,36.98
2018-09-02T10:32:04.768Z,37.45
2018-09-02T10:34:36.897Z,37.17
2018-09-02T10:37:08.510Z,37.16
2018-09-02T10:39:38.700Z,37.52
2018-09-02T10:42:09.531Z,37.92
2018-09-02T10:44:39.872Z,37.98
2018-09-02T10:47:10.246Z,38.49
2018-09-02T10:49:41.271Z,38.53
2018-09-02T10:52:12.087Z,38.22
2018-09-02T10:54:42.985Z,38.25
2018-09-02T10:57:13.290Z,38.57
2018-09-02T10:59:43.832Z,39.47
2018-09-02T11:02:14.562Z,39.43
2018-09-02T11:04:44.856Z,38.94
2018-09-02T11:07:15.915Z,38.89
2018-09-02T11:09:46.821Z,39.01
2018-09-02T11:12:17.239Z,39.32
2018-09-02T11:14:47.656Z,39.34
2018-09-02T11:17:17.856Z,38.65
2018-09-02T11:19:48.031Z,38.93
2018-09-02T11:22:18.644Z,39.45
2018-09-02T11:24:49.687Z,40.00
2018-09-02T11:27:20.922Z,39.75
2018-09-02T11:29:51.089Z,39.60
2018-09-02T11:32:21.593Z,39.68
2018-09-02T11:34:52.143Z,39.53
2018-09-02T11:37:22.841Z,39.14
2018-09-02T11:39:53.206Z,39.30
2018-09-02T11:42:23.301Z,39.77
2018-09-02T11:44:53.724Z,39.90
2018-09-02T11:47:24.904Z,39.27
2018-09-02T11:49:55.601Z,39.86
2018-09-02T11:52:26.091Z,40.19
2018-09-02T11:54:57.270Z,40.07
2018-09-02T11:57:28.544Z,40.20
2018-09-02T11:59:59.952Z,40.18
2018-09-02T12:02:30.122Z,41.02
2018-09-02T12:05:00.310Z,41.02
2018-09-02T12:07:31.090Z,41.01
2018-09-02T12:10:01.335Z,40.44
2018-09-02T12:12:31.684Z,40.20
2018-09-02T12:15:01.973Z,40.44
2018-09-02T12:17:32.368Z,40.95
2018-09-02T12:20:02.744Z,41.52
2018-09-02T12:22:33.488Z,41.48
2018-09-02T12:25:03.820Z,41.18
2018-09-02T12:27:34.372Z,41.66
2018-09-02T12:30:05.518Z,41.60
2018-09-02T12:32:36.035Z,42.03
2018-09-02T12:35:06.270Z,42.80
2018-09-02T12:37:36.661Z,42.25
2018-09-02T12:40:06.935Z,41.98
2018-09-02T12:42:37.323Z,42.14
2018-09-02T12:45:07.723Z,41.50
2018-09-02T12:47:38.493Z,40.78
2018-09-02T12:50:09.314Z,41.09
2018-09-02T12:52:39.868Z,40.38
2018-09-02T12:55:11.172Z,40.21
2018-09-02T12:57:41.717Z,40.47
2018-09-02T13:00:11.926Z,40.37
2018-09-02T13:02:42.394Z,40.25
2018-09-02T13:05:12.591Z,40.12
2018-09-02T13:07:43.170Z,40.44
2018-09-02T13:10:14.003Z,39.98
2018-09-02T13:12:44.873Z,39.50
2018-09-02T13:15:15.786Z,39.34
2018-09-02T13:17:46.505Z,40.10
2018-09-02T13:20:17.313Z,40.41
2018-09-02T13:22:48.488Z,39.70
2018-09-02T13:25:18.962Z,39.13
2018-09-02T13:27:50.186Z,39.07
2018-09-02T13:30:20.717Z,38.89
2018-09-02T13:32:51.488Z,38.59
2018-09-02T13:35:22.468Z,38.47
2018-09-02T13:37:53.665Z,38.36
2018-09-02T13:40:23.979Z,38.69
2018-09-02T13:42:54.948Z,39.23
2018-09-02T13:45:25.259Z,38.81
2018-09-02T13:47:56.736Z,39.05
2018-09-02T13:50:27.319Z,39.10
2018-09-02T13:52:58.301Z,39.34
2018-09-02T13:55:29.005Z,40.16
2018-09-02T13:57:59.368Z,40.57
2018-09-02T14:00:29.481Z,40.60
2018-09-02T14:03:00.037Z,39.97
2018-09-02T14:05:30.547Z,39.76
2018-09-02T14:08:01.816Z,39.68
2018-09-02T14:10:31.948Z,39.62
2018-09-02T14:13:02.203Z,40.11
2018-09-02T14:15:32.389Z,40.11
2018-09-02T14:18:02.852Z,40.56
2018-09-02T14:20:32.908Z,40.81
2018-09-02T14:23:04.388Z,40.88
2018-09-02T14:25:34.389Z,39.73
2018-09-02T14:28:04.191Z,38.53
2018-09-02T14:30:34.417Z,38.48
2018-09-02T14:33:04.765Z,38.44
2018-09-02T14:35:34.633Z,38.76
2018-09-02T14:38:05.025Z,38.18
2018-09-02T14:40:35.554Z,38.41
2018-09-02T14:43:05.789Z,38.37
2018-09-02T14:45:36.661Z,37.88
2018-09-02T14:48:07.403Z,37.65
2018-09-02T14:50:37.887Z,36.60
2018-09-02T14:53:08.467Z,36.18
2018-09-02T14:55:38.777Z,35.88
2018-09-02T14:58:09.260Z,35.81
2018-09-02T15:00:39.483Z,35.71
2018-09-02T15:03:09.601Z,36.26
2018-09-02T15:05:39.826Z,36.68
2018-09-02T15:08:10.066Z,36.09
2018-09-02T15:10:40.355Z,35.96
2018-09-02T15:13:10.871Z,35.84
2018-09-02T15:15:41.249Z,35.23
2018-09-02T15:18:11.470Z,35.41
2018-09-02T15:20:41.701Z,35.00
2018-09-02T15:23:11.837Z,34.79
2018-09-02T15:25:42.187Z,34.36
2018-09-02T15:28:12.623Z,34.39
2018-09-02T15:30:43.225Z,34.50
2018-09-02T15:33:13.761Z,34.47
2018-09-02T15:35:44.043Z,34.49
2018-09-02T15:38:14.178Z,34.43
2018-09-02T15:40:44.295Z,34.50
2018-09-02T15:43:14.525Z,34.58
2018-09-02T15:45:44.717Z,34.33
2018-09-02T15:48:15.091Z,34.54
2018-09-02T15:50:45.694Z,34.62
2018-09-02T15:53:16.045Z,34.30
2018-09-02T15:55:46.518Z,34.17
2018-09-02T15:58:17.109Z,34.05
2018-09-02T16:00:47.667Z,33.89
2018-09-02T16:03:17.902Z,33.60
2018-09-02T16:05:48.283Z,33.45
2018-09-02T16:08:18.565Z,33.22
2018-09-02T16:10:48.699Z,33.21
2018-09-02T16:13:18.944Z,33.17
2018-09-02T16:15:49.145Z,33.18
2018-09-02T16:18:19.487Z,33.14
2018-09-02T16:20:49.803Z,33.06
2018-09-02T16:23:20.234Z,32.90
2018-09-02T16:25:50.653Z,32.65
2018-09-02T16:28:20.824Z,32.71
2018-09-02T16:30:51.060Z,32.67
2018-09-02T16:33:21.644Z,32.57
2018-09-02T16:35:52.011Z,32.40
2018-09-02T16:38:22.341Z,32.31
2018-09-02T16:40:52.478Z,32.35
2018-09-02T16:43:22.514Z,32.30
2018-09-02T16:45:52.745Z,32.02
2018-09-02T16:48:24.401Z,31.99
2018-09-02T16:50:54.905Z,31.79
2018-09-02T16:53:25.243Z,31.76
2018-09-02T16:55:55.784Z,31.67
2018-09-02T16:58:25.983Z,31.60
2018-09-02T17:00:56.040Z,31.58
2018-09-02T17:03:31.090Z,31.56
2018-09-02T17:06:01.360Z,31.37
2018-09-02T17:08:31.919Z,31.30
2018-09-02T17:11:02.121Z,31.24
2018-09-02T17:13:32.299Z,31.17
2018-09-02T17:16:02.424Z,30.95
2018-09-02T17:18:32.644Z,30.64
2018-09-02T17:21:02.817Z,30.65
2018-09-02T17:23:32.933Z,30.61
2018-09-02T17:26:03.164Z,30.51
2018-09-02T17:28:33.381Z,30.41
2018-09-02T17:31:03.486Z,30.29
2018-09-02T17:33:34.716Z,30.09
2018-09-02T17:36:05.235Z,30.02
2018-09-02T17:38:35.508Z,29.87
2018-09-02T17:41:05.761Z,29.78
2018-09-02T17:43:35.876Z,29.62
2018-09-02T17:46:06.147Z,29.48
2018-09-02T17:48:37.213Z,29.38
2018-09-02T17:51:07.477Z,29.18
2018-09-02T17:53:37.787Z,29.14
2018-09-02T17:56:08.145Z,28.97
2018-09-02T17:58:38.378Z,28.97
2018-09-02T18:01:08.804Z,28.84
2018-09-02T18:03:39.232Z,28.80
2018-09-02T18:06:09.655Z,28.73
2018-09-02T18:08:40.334Z,28.56
2018-09-02T18:11:10.724Z,28.46
2018-09-02T18:13:41.342Z,28.25
2018-09-02T18:16:11.984Z,28.03
2018-09-02T18:18:42.450Z,28.06
2018-09-02T18:21:12.733Z,28.12
2018-09-02T18:23:43.025Z,27.86
2018-09-02T18:26:13.470Z,27.85
2018-09-02T18:28:45.614Z,27.88
2018-09-02T18:31:15.953Z,27.90
2018-09-02T18:33:46.300Z,27.86
2018-09-02T18:36:16.695Z,27.72
2018-09-02T18:38:46.876Z,27.69
2018-09-02T18:41:16.952Z,27.64
2018-09-02T18:43:47.287Z,27.66
2018-09-02T18:46:17.651Z,27.61
2018-09-02T18:48:48.181Z,27.52
2018-09-02T18:51:18.705Z,27.28
2018-09-02T18:53:49.009Z,27.20
2018-09-02T18:56:19.680Z,26.96
2018-09-02T18:58:50.535Z,26.91
2018-09-02T19:01:20.763Z,26.95
2018-09-02T19:03:51.055Z,26.83
2018-09-02T19:06:21.021Z,26.72
2018-09-02T19:08:51.833Z,26.44
2018-09-02T19:11:22.418Z,26.49
2018-09-02T19:13:53.181Z,26.57
2018-09-02T19:16:23.529Z,26.50
2018-09-02T19:18:53.822Z,26.21
2018-09-02T19:21:24.178Z,26.10
2018-09-02T19:23:55.056Z,26.14
2018-09-02T19:26:25.913Z,26.18
2018-09-02T19:28:56.336Z,26.06
2018-09-02T19:31:26.642Z,25.97
2018-09-02T19:33:57.191Z,25.80
2018-09-02T19:36:27.601Z,25.66
2018-09-02T19:38:57.781Z,25.69
2018-09-02T19:41:28.023Z,25.58
2018-09-02T19:43:58.328Z,25.51
2018-09-02T19:46:28.948Z,25.51
2018-09-02T19:48:59.278Z,25.43
2018-09-02T19:51:29.451Z,25.44
2018-09-02T19:53:59.658Z,25.30
2018-09-02T19:56:31.901Z,25.31
2018-09-02T19:59:03.500Z,25.16
2018-09-02T20:01:33.688Z,25.17
2018-09-02T20:04:03.834Z,25.19
2018-09-02T20:06:34.113Z,25.19
2018-09-02T20:09:07.762Z,24.69
2018-09-02T20:11:38.417Z,24.52
2018-09-02T20:14:08.893Z,24.54
2018-09-02T20:16:39.512Z,24.69
2018-09-02T20:19:10.005Z,24.82
2018-09-02T20:21:40.242Z,24.44
2018-09-02T20:24:10.596Z,24.47
2018-09-02T20:26:41.081Z,24.57
2018-09-02T20:29:11.514Z,24.70
2018-09-02T20:31:43.530Z,24.64
2018-09-02T20:34:14.775Z,24.72
2018-09-02T20:36:45.277Z,24.81
2018-09-02T20:39:15.563Z,24.91
2018-09-02T20:41:45.959Z,24.92
2018-09-02T20:44:15.943Z,24.98
2018-09-02T20:46:46.451Z,24.93
2018-09-02T20:49:17.560Z,24.83
2018-09-02T20:51:48.015Z,24.77
2018-09-02T20:54:18.290Z,24.83
2018-09-02T20:56:48.749Z,24.71
2018-09-02T20:59:19.019Z,24.66
2018-09-02T21:01:49.262Z,24.55
2018-09-02T21:04:19.500Z,24.51
2018-09-02T21:06:50.622Z,24.46
2018-09-02T21:09:21.344Z,24.49
2018-09-02T21:11:51.625Z,24.49
2018-09-02T21:14:22.910Z,24.41
2018-09-02T21:16:53.495Z,24.36
2018-09-02T21:19:25.470Z,24.26
2018-09-02T21:21:57.525Z,24.30
2018-09-02T21:24:29.464Z,24.24
2018-09-02T21:27:01.379Z,24.18
2018-09-02T21:29:32.899Z,24.11
2018-09-02T21:32:03.788Z,24.09
2018-09-02T21:34:35.426Z,24.03
2018-09-02T21:37:07.932Z,23.96
2018-09-02T21:39:39.105Z,23.94
2018-09-02T21:42:10.194Z,23.87
2018-09-02T21:44:41.564Z,23.79
2018-09-02T21:47:12.264Z,23.83
2018-09-02T21:49:44.778Z,23.76
2018-09-02T21:52:16.206Z,23.90
2018-09-02T21:54:46.805Z,24.03
2018-09-02T21:57:18.054Z,24.03
2018-09-02T21:59:49.630Z,23.99
2018-09-02T22:02:21.178Z,23.96
2018-09-02T22:04:52.351Z,23.95
2018-09-02T22:07:23.584Z,23.88
2018-09-02T22:09:54.821Z,23.82
2018-09-02T22:12:26.072Z,23.70
2018-09-02T22:14:57.767Z,23.70
2018-09-02T22:17:29.844Z,23.74
2018-09-02T22:20:01.556Z,23.83
2018-09-02T22:22:32.070Z,23.86
2018-09-02T22:25:03.372Z,23.86
2018-09-02T22:27:34.934Z,23.91
2018-09-02T22:30:06.356Z,23.76
2018-09-02T22:32:37.590Z,23.79
2018-09-02T22:35:08.967Z,23.78
2018-09-02T22:37:39.766Z,23.74
2018-09-02T22:40:10.878Z,23.70
2018-09-02T22:42:41.797Z,23.65
2018-09-02T22:45:13.235Z,23.69
2018-09-02T22:47:44.690Z,23.67
2018-09-02T22:50:15.491Z,23.80
2018-09-02T22:52:47.091Z,23.86
2018-09-02T22:55:18.220Z,23.88
2018-09-02T22:57:49.766Z,23.80
2018-09-02T23:00:20.731Z,23.79
2018-09-02T23:02:52.058Z,23.93
2018-09-02T23:05:23.335Z,23.93
2018-09-02T23:07:54.367Z,23.85
2018-09-02T23:10:25.801Z,23.84
2018-09-02T23:12:57.134Z,23.72
2018-09-02T23:15:27.979Z,23.66
2018-09-02T23:17:59.767Z,23.57
2018-09-02T23:20:30.916Z,23.58
2018-09-02T23:23:02.303Z,23.61
2018-09-02T23:25:33.537Z,23.70
2018-09-02T23:28:04.431Z,23.73
2018-09-02T23:30:35.596Z,23.73
2018-09-02T23:33:06.857Z,23.76
2018-09-02T23:35:37.993Z,23.78
2018-09-02T23:38:09.094Z,23.72
2018-09-02T23:40:40.618Z,23.68
2018-09-02T23:43:12.436Z,23.58
2018-09-02T23:45:43.847Z,23.50
2018-09-02T23:48:14.363Z,23.35
2018-09-02T23:50:45.677Z,23.39
2018-09-02T23:53:16.383Z,23.41
2018-09-02T23:55:47.448Z,23.20
2018-09-02T23:58:18.655Z,23.20
